createdAt,value
2019-03-21T00:02:20.002Z,5.60
2019-03-21T00:04:53.134Z,5.66
2019-03-21T00:07:22.761Z,5.75
2019-03-21T00:10:29.677Z,5.71
2019-03-21T00:12:59.635Z,5.74
2019-03-21T00:15:33.810Z,5.56
2019-03-21T00:18:06.816Z,5.61
2019-03-21T00:20:36.850Z,5.57
2019-03-21T00:23:06.511Z,5.56
2019-03-21T00:25:36.519Z,5.50
2019-03-21T00:28:06.176Z,5.55
2019-03-21T00:30:35.768Z,5.61
2019-03-21T00:33:05.454Z,5.56
2019-03-21T00:35:35.104Z,5.51
2019-03-21T00:38:04.735Z,5.74
2019-03-21T00:40:37.245Z,5.65
2019-03-21T00:43:08.644Z,5.51
2019-03-21T00:45:38.334Z,5.32
2019-03-21T00:48:10.042Z,5.37
2019-03-21T00:50:39.671Z,5.31
2019-03-21T00:53:09.334Z,5.33
2019-03-21T00:55:39.697Z,5.28
2019-03-21T00:58:09.392Z,5.24
2019-03-21T01:00:44.782Z,5.44
2019-03-21T01:03:15.024Z,5.28
2019-03-21T01:05:44.918Z,5.22
2019-03-21T01:08:14.569Z,5.10
2019-03-21T01:10:44.215Z,5.25
2019-03-21T01:13:13.999Z,5.14
2019-03-21T01:15:43.649Z,5.06
2019-03-21T01:18:13.189Z,5.06
2019-03-21T01:20:42.820Z,4.88
2019-03-21T01:23:12.368Z,4.78
2019-03-21T01:25:45.411Z,4.83
2019-03-21T01:28:15.024Z,4.76
2019-03-21T01:30:44.693Z,4.70
2019-03-21T01:33:14.325Z,4.59
2019-03-21T01:35:44.162Z,4.45
2019-03-21T01:38:13.772Z,4.35
2019-03-21T01:40:44.676Z,4.28
2019-03-21T01:43:14.316Z,4.38
2019-03-21T01:45:44.064Z,4.24
2019-03-21T01:48:13.684Z,4.18
2019-03-21T01:50:43.340Z,4.19
2019-03-21T01:53:12.952Z,4.04
2019-03-21T01:55:42.596Z,3.97
2019-03-21T01:58:12.206Z,4.36
2019-03-21T02:00:41.870Z,4.15
2019-03-21T02:03:11.397Z,3.87
2019-03-21T02:05:41.391Z,3.89
2019-03-21T02:08:10.998Z,4.06
2019-03-21T02:10:40.558Z,4.03
2019-03-21T02:13:10.170Z,3.95
2019-03-21T02:15:40.831Z,3.91
2019-03-21T02:18:10.572Z,3.92
2019-03-21T02:20:40.124Z,3.85
2019-03-21T02:23:09.653Z,3.85
2019-03-21T02:25:39.317Z,3.67
2019-03-21T02:28:08.932Z,3.63
2019-03-21T02:30:38.779Z,3.69
2019-03-21T02:33:12.303Z,3.72
2019-03-21T02:35:41.962Z,3.63
2019-03-21T02:38:11.583Z,3.73
2019-03-21T02:40:41.253Z,3.63
2019-03-21T02:43:10.741Z,3.60
2019-03-21T02:45:40.572Z,3.55
2019-03-21T02:48:10.205Z,3.61
2019-03-21T02:50:39.859Z,3.60
2019-03-21T02:53:09.472Z,3.49
2019-03-21T02:55:39.120Z,3.46
2019-03-21T02:58:08.724Z,3.53
2019-03-21T03:00:38.401Z,3.50
2019-03-21T03:03:09.046Z,3.42
2019-03-21T03:05:38.691Z,3.42
2019-03-21T03:08:08.555Z,3.44
2019-03-21T03:10:41.039Z,3.43
2019-03-21T03:13:10.643Z,3.45
2019-03-21T03:15:40.309Z,3.33
2019-03-21T03:18:10.180Z,3.25
2019-03-21T03:20:39.823Z,3.21
2019-03-21T03:23:09.452Z,3.23
2019-03-21T03:25:39.124Z,3.17
2019-03-21T03:28:20.226Z,3.26
2019-03-21T03:30:50.147Z,3.07
2019-03-21T03:33:19.745Z,3.07
2019-03-21T03:35:49.406Z,3.20
2019-03-21T03:38:18.929Z,3.14
2019-03-21T03:40:51.251Z,2.98
2019-03-21T03:43:20.860Z,2.94
2019-03-21T03:45:50.553Z,3.21
2019-03-21T03:48:20.393Z,3.10
2019-03-21T03:50:50.021Z,3.20
2019-03-21T03:53:19.743Z,3.19
2019-03-21T03:55:49.485Z,3.23
2019-03-21T03:58:20.118Z,3.19
2019-03-21T04:00:49.736Z,3.03
2019-03-21T04:03:19.716Z,3.12
2019-03-21T04:05:49.341Z,3.05
2019-03-21T04:08:19.418Z,2.99
2019-03-21T04:10:49.154Z,2.98
2019-03-21T04:13:18.860Z,3.01
2019-03-21T04:15:53.168Z,2.99
2019-03-21T04:18:20.070Z,3.11
2019-03-21T04:20:49.991Z,3.09
2019-03-21T04:23:20.110Z,3.00
2019-03-21T04:25:55.805Z,3.13
2019-03-21T04:28:25.436Z,2.97
2019-03-21T04:30:55.044Z,3.15
2019-03-21T04:33:24.894Z,3.04
2019-03-21T04:35:54.507Z,2.95
2019-03-21T04:38:24.515Z,3.07
2019-03-21T04:40:54.188Z,3.03
2019-03-21T04:43:24.017Z,3.05
2019-03-21T04:46:02.808Z,3.12
2019-03-21T04:48:25.009Z,3.04
2019-03-21T04:50:54.562Z,3.10
2019-03-21T04:53:24.206Z,3.00
2019-03-21T04:55:53.862Z,2.89
2019-03-21T04:58:23.474Z,3.04
2019-03-21T05:00:53.189Z,3.23
2019-03-21T05:03:23.993Z,2.89
2019-03-21T05:05:53.583Z,2.99
2019-03-21T05:08:23.201Z,3.23
2019-03-21T05:10:52.813Z,3.08
2019-03-21T05:13:22.395Z,2.94
2019-03-21T05:15:52.097Z,3.42
2019-03-21T05:18:25.602Z,3.86
2019-03-21T05:20:55.350Z,3.98
2019-03-21T05:23:24.996Z,3.66
2019-03-21T05:25:54.763Z,3.36
2019-03-21T05:28:24.577Z,3.39
2019-03-21T05:31:03.223Z,3.25
2019-03-21T05:33:33.584Z,3.23
2019-03-21T05:36:03.268Z,3.32
2019-03-21T05:38:33.246Z,3.11
2019-03-21T05:41:02.892Z,3.29
2019-03-21T05:43:39.199Z,3.19
2019-03-21T05:46:09.003Z,3.21
2019-03-21T05:48:38.695Z,3.26
2019-03-21T05:51:08.193Z,3.49
2019-03-21T05:53:38.381Z,3.46
2019-03-21T05:56:08.457Z,3.48
2019-03-21T05:58:38.139Z,3.50
2019-03-21T06:01:07.819Z,3.48
2019-03-21T06:03:46.960Z,3.44
2019-03-21T06:06:20.710Z,3.52
2019-03-21T06:08:50.406Z,3.63
2019-03-21T06:11:20.176Z,3.66
2019-03-21T06:13:49.704Z,3.57
2019-03-21T06:16:19.533Z,3.55
2019-03-21T06:19:03.365Z,3.76
2019-03-21T06:21:50.838Z,4.17
2019-03-21T06:24:51.451Z,4.42
2019-03-21T06:27:38.317Z,4.38
2019-03-21T06:30:10.008Z,4.32
2019-03-21T06:32:39.780Z,4.33
2019-03-21T06:35:24.852Z,4.34
2019-03-21T06:37:54.741Z,4.40
2019-03-21T06:40:24.350Z,4.58
2019-03-21T06:42:54.258Z,4.49
2019-03-21T06:45:23.923Z,4.45
2019-03-21T06:47:53.481Z,4.55
2019-03-21T06:50:23.146Z,4.62
2019-03-21T06:52:52.763Z,4.60
2019-03-21T06:55:22.702Z,4.78
2019-03-21T06:57:52.359Z,4.81
2019-03-21T07:00:21.969Z,5.01
2019-03-21T07:02:51.548Z,5.01
2019-03-21T07:05:21.563Z,4.96
2019-03-21T07:07:51.165Z,5.09
2019-03-21T07:10:20.822Z,5.18
2019-03-21T07:12:50.686Z,5.25
2019-03-21T07:15:20.325Z,5.34
2019-03-21T07:17:49.875Z,5.46
2019-03-21T07:20:19.450Z,5.60
2019-03-21T07:22:49.121Z,5.79
2019-03-21T07:25:18.789Z,5.99
2019-03-21T07:27:48.425Z,6.20
2019-03-21T07:30:18.474Z,6.38
2019-03-21T07:32:48.166Z,6.49
2019-03-21T07:35:17.830Z,6.61
2019-03-21T07:37:47.649Z,6.75
2019-03-21T07:40:17.262Z,6.88
2019-03-21T07:42:46.910Z,7.00
2019-03-21T07:45:17.448Z,7.00
2019-03-21T07:47:47.152Z,7.07
2019-03-21T07:50:16.867Z,7.24
2019-03-21T07:52:46.524Z,7.26
2019-03-21T07:55:16.169Z,7.47
2019-03-21T07:57:46.012Z,7.53
2019-03-21T08:00:16.118Z,7.65
2019-03-21T08:02:45.805Z,7.61
2019-03-21T08:05:15.723Z,7.73
2019-03-21T08:07:45.222Z,7.78
2019-03-21T08:10:14.909Z,7.89
2019-03-21T08:12:44.533Z,8.06
2019-03-21T08:15:14.254Z,8.13
2019-03-21T08:17:44.234Z,8.17
2019-03-21T08:20:14.201Z,8.28
2019-03-21T08:22:43.797Z,8.34
2019-03-21T08:25:13.498Z,8.42
2019-03-21T08:27:43.213Z,8.58
2019-03-21T08:30:34.723Z,8.58
2019-03-21T08:33:04.676Z,8.78
2019-03-21T08:35:34.341Z,8.78
2019-03-21T08:38:03.960Z,8.75
2019-03-21T08:40:33.601Z,8.94
2019-03-21T08:43:22.127Z,8.87
2019-03-21T08:45:51.861Z,8.98
2019-03-21T08:48:21.550Z,8.98
2019-03-21T08:50:51.334Z,8.98
2019-03-21T08:53:21.011Z,9.02
2019-03-21T08:55:50.713Z,9.02
2019-03-21T08:58:20.416Z,9.18
2019-03-21T09:00:51.950Z,9.54
2019-03-21T09:03:21.617Z,9.54
2019-03-21T09:05:51.464Z,9.60
2019-03-21T09:08:21.146Z,9.67
2019-03-21T09:10:50.935Z,9.62
2019-03-21T09:13:20.641Z,9.62
2019-03-21T09:15:50.681Z,9.88
2019-03-21T09:18:20.337Z,9.89
2019-03-21T09:20:50.137Z,9.92
2019-03-21T09:23:19.832Z,9.98
2019-03-21T09:25:51.377Z,10.26
2019-03-21T09:28:21.034Z,10.26
2019-03-21T09:30:50.961Z,10.36
2019-03-21T09:33:20.943Z,10.57
2019-03-21T09:35:50.967Z,10.58
2019-03-21T09:38:20.633Z,10.71
2019-03-21T09:40:50.430Z,10.65
2019-03-21T09:43:20.113Z,10.66
2019-03-21T09:45:49.808Z,10.58
2019-03-21T09:48:19.551Z,10.61
2019-03-21T09:50:49.247Z,10.76
2019-03-21T09:53:18.957Z,10.71
2019-03-21T09:55:48.650Z,10.69
2019-03-21T09:58:18.343Z,10.75
2019-03-21T10:00:47.987Z,10.80
2019-03-21T10:03:17.699Z,10.92
2019-03-21T10:05:47.526Z,10.96
2019-03-21T10:08:17.184Z,11.10
2019-03-21T10:10:46.887Z,11.07
2019-03-21T10:13:16.561Z,11.19
2019-03-21T10:15:46.285Z,11.34
2019-03-21T10:18:15.950Z,11.28
2019-03-21T10:20:45.898Z,11.42
2019-03-21T10:23:15.575Z,11.38
2019-03-21T10:25:45.305Z,11.39
2019-03-21T10:28:15.001Z,11.58
2019-03-21T10:30:44.659Z,11.71
2019-03-21T10:33:15.356Z,11.79
2019-03-21T10:35:45.146Z,11.85
2019-03-21T10:38:14.867Z,11.93
2019-03-21T10:40:44.710Z,12.01
2019-03-21T10:43:14.696Z,12.29
2019-03-21T10:45:44.386Z,12.27
2019-03-21T10:48:14.052Z,12.09
2019-03-21T10:50:43.820Z,12.43
2019-03-21T10:53:13.526Z,12.60
2019-03-21T10:55:43.325Z,12.62
2019-03-21T10:58:13.092Z,12.59
2019-03-21T11:00:42.859Z,12.56
2019-03-21T11:03:12.559Z,12.52
2019-03-21T11:05:42.554Z,12.82
2019-03-21T11:08:12.272Z,12.81
2019-03-21T11:10:41.933Z,12.89
2019-03-21T11:13:11.629Z,13.01
2019-03-21T11:15:41.289Z,12.91
2019-03-21T11:18:11.085Z,12.95
2019-03-21T11:20:41.385Z,12.84
2019-03-21T11:23:11.287Z,12.71
2019-03-21T11:25:41.128Z,12.81
2019-03-21T11:28:11.285Z,12.83
2019-03-21T11:30:42.491Z,12.97
2019-03-21T11:33:12.720Z,13.29
2019-03-21T11:35:42.497Z,13.27
2019-03-21T11:38:12.409Z,13.21
2019-03-21T11:40:42.191Z,13.30
2019-03-21T11:43:14.008Z,13.31
2019-03-21T11:45:43.823Z,13.15
2019-03-21T11:48:13.521Z,13.61
2019-03-21T11:50:43.422Z,13.53
2019-03-21T11:53:13.096Z,13.51
2019-03-21T11:55:42.835Z,13.39
2019-03-21T11:58:18.668Z,13.42
2019-03-21T12:00:55.365Z,13.44
2019-03-21T12:03:25.174Z,13.77
2019-03-21T12:05:55.598Z,13.91
2019-03-21T12:08:25.489Z,13.71
2019-03-21T12:10:55.201Z,13.89
2019-03-21T12:13:25.042Z,13.38
2019-03-21T12:15:54.781Z,13.42
2019-03-21T12:18:24.509Z,13.69
2019-03-21T12:20:54.234Z,13.67
2019-03-21T12:23:24.000Z,13.99
2019-03-21T12:25:53.965Z,13.99
2019-03-21T12:28:59.564Z,13.97
2019-03-21T12:31:29.997Z,14.05
2019-03-21T12:33:59.687Z,13.96
2019-03-21T12:36:29.574Z,14.11
2019-03-21T12:38:59.822Z,14.07
2019-03-21T12:41:29.726Z,14.22
2019-03-21T12:43:59.416Z,14.18
2019-03-21T12:46:29.166Z,14.04
2019-03-21T12:48:58.868Z,14.18
2019-03-21T12:51:28.672Z,14.45
2019-03-21T12:53:58.386Z,14.55
2019-03-21T12:56:28.083Z,14.53
2019-03-21T12:58:57.779Z,14.44
2019-03-21T13:01:27.650Z,14.26
2019-03-21T13:03:57.544Z,14.43
2019-03-21T13:06:27.231Z,14.44
2019-03-21T13:08:56.933Z,14.22
2019-03-21T13:11:26.624Z,14.17
2019-03-21T13:13:56.618Z,14.54
2019-03-21T13:16:26.452Z,14.53
2019-03-21T13:18:56.275Z,14.44
2019-03-21T13:21:26.017Z,14.50
2019-03-21T13:23:55.945Z,14.34
2019-03-21T13:26:25.814Z,14.38
2019-03-21T13:28:55.542Z,14.34
2019-03-21T13:31:25.278Z,14.55
2019-03-21T13:33:55.066Z,14.79
2019-03-21T13:36:24.751Z,14.90
2019-03-21T13:38:54.656Z,14.84
2019-03-21T13:41:24.314Z,14.91
2019-03-21T13:43:54.122Z,14.94
2019-03-21T13:46:23.879Z,14.87
2019-03-21T13:48:53.565Z,14.89
2019-03-21T13:51:23.310Z,14.85
2019-03-21T13:53:53.018Z,14.96
2019-03-21T13:56:22.718Z,15.03
2019-03-21T13:58:54.490Z,15.20
2019-03-21T14:01:26.235Z,15.17
2019-03-21T14:03:57.134Z,15.19
2019-03-21T14:06:47.911Z,15.28
2019-03-21T14:09:20.157Z,15.26
2019-03-21T14:11:49.177Z,15.07
2019-03-21T14:14:18.926Z,15.26
2019-03-21T14:16:51.025Z,15.35
2019-03-21T14:19:20.739Z,15.16
2019-03-21T14:21:50.430Z,15.13
2019-03-21T14:24:20.110Z,15.25
2019-03-21T14:26:49.855Z,14.96
2019-03-21T14:29:20.568Z,15.07
2019-03-21T14:31:50.575Z,15.02
2019-03-21T14:34:20.238Z,14.97
2019-03-21T14:36:50.042Z,15.02
2019-03-21T14:39:19.773Z,14.93
2019-03-21T14:41:49.492Z,14.88
2019-03-21T14:44:19.156Z,14.75
2019-03-21T14:46:48.860Z,14.62
2019-03-21T14:49:18.510Z,14.56
2019-03-21T14:51:48.208Z,14.62
2019-03-21T14:54:17.997Z,14.60
2019-03-21T14:56:47.703Z,14.62
2019-03-21T14:59:17.358Z,14.85
2019-03-21T15:01:47.287Z,14.76
2019-03-21T15:04:16.979Z,14.90
2019-03-21T15:06:46.705Z,14.98
2019-03-21T15:09:16.451Z,14.85
2019-03-21T15:11:47.378Z,14.83
2019-03-21T15:14:17.109Z,14.78
2019-03-21T15:16:46.897Z,14.78
2019-03-21T15:19:16.584Z,14.90
2019-03-21T15:21:46.260Z,14.71
2019-03-21T15:24:15.942Z,14.62
2019-03-21T15:26:45.605Z,14.49
2019-03-21T15:29:15.328Z,14.54
2019-03-21T15:31:44.985Z,14.55
2019-03-21T15:34:14.746Z,14.56
2019-03-21T15:36:44.492Z,14.55
2019-03-21T15:39:14.341Z,14.52
2019-03-21T15:41:44.230Z,14.47
2019-03-21T15:44:13.926Z,14.60
2019-03-21T15:46:43.598Z,14.50
2019-03-21T15:49:13.377Z,14.56
2019-03-21T15:51:43.060Z,14.56
2019-03-21T15:54:12.929Z,14.48
2019-03-21T15:56:43.061Z,14.39
2019-03-21T15:59:12.903Z,14.18
2019-03-21T16:01:42.802Z,14.09
2019-03-21T16:04:12.559Z,14.22
2019-03-21T16:06:42.306Z,14.18
2019-03-21T16:09:12.145Z,14.25
2019-03-21T16:11:41.872Z,14.20
2019-03-21T16:14:11.591Z,14.23
2019-03-21T16:16:41.286Z,14.05
2019-03-21T16:19:10.997Z,13.93
2019-03-21T16:21:40.720Z,13.99
2019-03-21T16:24:12.304Z,13.99
2019-03-21T16:26:42.597Z,14.18
2019-03-21T16:29:12.305Z,14.00
2019-03-21T16:31:42.326Z,13.92
2019-03-21T16:34:12.093Z,13.89
2019-03-21T16:36:41.841Z,13.85
2019-03-21T16:39:11.578Z,13.67
2019-03-21T16:41:41.397Z,13.52
2019-03-21T16:44:11.215Z,13.30
2019-03-21T16:46:41.280Z,13.27
2019-03-21T16:49:11.111Z,13.20
2019-03-21T16:51:43.361Z,13.04
2019-03-21T16:54:17.248Z,12.72
2019-03-21T16:56:46.123Z,12.52
2019-03-21T16:59:15.886Z,12.19
2019-03-21T17:01:45.639Z,12.00
2019-03-21T17:04:15.436Z,11.95
2019-03-21T17:06:45.404Z,11.84
2019-03-21T17:09:15.211Z,11.67
2019-03-21T17:11:45.348Z,11.37
2019-03-21T17:14:17.909Z,11.29
2019-03-21T17:16:47.559Z,11.27
2019-03-21T17:19:17.287Z,11.29
2019-03-21T17:21:47.633Z,11.36
2019-03-21T17:24:28.894Z,11.31
2019-03-21T17:26:49.236Z,11.24
2019-03-21T17:29:19.013Z,11.09
2019-03-21T17:31:48.695Z,10.96
2019-03-21T17:34:18.372Z,10.88
2019-03-21T17:36:48.045Z,10.83
2019-03-21T17:39:17.898Z,10.67
2019-03-21T17:41:47.561Z,10.58
2019-03-21T17:44:17.252Z,10.46
2019-03-21T17:46:46.921Z,10.36
2019-03-21T17:49:16.662Z,10.13
2019-03-21T17:51:46.753Z,9.98
2019-03-21T17:54:16.884Z,9.98
2019-03-21T17:56:46.575Z,9.85
2019-03-21T17:59:16.747Z,9.75
2019-03-21T18:01:46.401Z,9.68
2019-03-21T18:04:16.588Z,9.56
2019-03-21T18:06:46.250Z,9.45
2019-03-21T18:09:16.024Z,9.40
2019-03-21T18:11:45.724Z,9.30
2019-03-21T18:14:15.447Z,9.29
2019-03-21T18:16:45.197Z,9.22
2019-03-21T18:19:14.911Z,9.15
2019-03-21T18:21:44.564Z,9.03
2019-03-21T18:24:14.281Z,8.95
2019-03-21T18:26:44.287Z,8.82
2019-03-21T18:29:14.026Z,8.82
2019-03-21T18:31:43.717Z,8.82
2019-03-21T18:34:13.305Z,8.81
2019-03-21T18:36:43.092Z,8.67
2019-03-21T18:39:14.370Z,8.56
2019-03-21T18:41:44.209Z,8.51
2019-03-21T18:44:13.871Z,8.37
2019-03-21T18:46:43.581Z,8.31
2019-03-21T18:49:13.335Z,8.28
2019-03-21T18:51:43.120Z,8.28
2019-03-21T18:54:12.877Z,8.37
2019-03-21T18:56:42.749Z,8.34
2019-03-21T18:59:12.417Z,8.27
2019-03-21T19:01:42.132Z,8.17
2019-03-21T19:04:11.883Z,8.00
2019-03-21T19:06:41.594Z,7.96
2019-03-21T19:09:12.471Z,8.01
2019-03-21T19:11:42.174Z,7.88
2019-03-21T19:14:12.081Z,7.83
2019-03-21T19:16:41.811Z,7.76
2019-03-21T19:19:12.168Z,7.73
2019-03-21T19:21:41.977Z,7.75
2019-03-21T19:24:11.846Z,7.67
2019-03-21T19:26:41.617Z,7.61
2019-03-21T19:29:11.281Z,7.75
2019-03-21T19:31:41.645Z,7.72
2019-03-21T19:34:11.428Z,7.73
2019-03-21T19:36:41.133Z,7.76
2019-03-21T19:39:11.277Z,7.68
2019-03-21T19:41:40.965Z,7.68
2019-03-21T19:44:10.645Z,7.53
2019-03-21T19:46:40.458Z,7.33
2019-03-21T19:49:10.320Z,7.31
2019-03-21T19:51:40.040Z,7.45
2019-03-21T19:54:09.829Z,7.45
2019-03-21T19:56:39.541Z,7.41
2019-03-21T19:59:09.486Z,7.40
2019-03-21T20:01:39.257Z,7.50
2019-03-21T20:04:08.905Z,7.30
2019-03-21T20:06:38.767Z,7.20
2019-03-21T20:09:09.008Z,7.05
2019-03-21T20:11:38.779Z,7.03
2019-03-21T20:14:09.046Z,7.03
2019-03-21T20:16:38.739Z,7.01
2019-03-21T20:19:29.398Z,7.28
2019-03-21T20:21:59.562Z,7.28
2019-03-21T20:24:29.275Z,7.08
2019-03-21T20:27:00.500Z,7.08
2019-03-21T20:29:30.393Z,6.93
2019-03-21T20:32:00.149Z,6.86
2019-03-21T20:34:29.877Z,6.88
2019-03-21T20:37:00.581Z,6.89
2019-03-21T20:39:30.675Z,6.86
2019-03-21T20:42:00.432Z,6.82
2019-03-21T20:44:30.130Z,6.82
2019-03-21T20:47:00.068Z,6.65
2019-03-21T20:49:29.925Z,6.55
2019-03-21T20:51:59.751Z,6.57
2019-03-21T20:54:29.475Z,6.77
2019-03-21T20:56:59.546Z,6.67
2019-03-21T20:59:29.304Z,6.73
2019-03-21T21:02:02.903Z,6.69
2019-03-21T21:04:30.740Z,6.61
2019-03-21T21:07:00.607Z,6.46
2019-03-21T21:09:30.791Z,6.38
2019-03-21T21:12:00.517Z,6.41
2019-03-21T21:14:30.498Z,6.44
2019-03-21T21:17:00.207Z,6.41
2019-03-21T21:19:29.877Z,6.37
2019-03-21T21:21:59.632Z,6.44
2019-03-21T21:24:29.316Z,6.36
2019-03-21T21:26:59.020Z,6.35
2019-03-21T21:29:28.695Z,6.24
2019-03-21T21:31:58.516Z,6.28
2019-03-21T21:34:28.281Z,6.30
2019-03-21T21:36:57.922Z,6.22
2019-03-21T21:39:27.643Z,6.24
2019-03-21T21:41:57.383Z,6.08
2019-03-21T21:44:27.450Z,6.02
2019-03-21T21:46:57.148Z,6.04
2019-03-21T21:49:26.974Z,6.05
2019-03-21T21:51:56.779Z,6.07
2019-03-21T21:54:26.465Z,6.01
2019-03-21T21:56:56.149Z,5.87
2019-03-21T21:59:25.824Z,5.78
2019-03-21T22:01:55.544Z,5.84
2019-03-21T22:04:25.221Z,5.82
2019-03-21T22:06:55.164Z,5.85
2019-03-21T22:09:24.830Z,5.88
2019-03-21T22:11:54.750Z,5.79
2019-03-21T22:14:24.543Z,5.79
2019-03-21T22:16:54.232Z,5.71
2019-03-21T22:19:24.153Z,5.58
2019-03-21T22:21:53.893Z,5.54
2019-03-21T22:24:23.573Z,5.42
2019-03-21T22:26:53.280Z,5.33
2019-03-21T22:29:22.953Z,5.36
2019-03-21T22:31:52.664Z,5.39
2019-03-21T22:34:22.349Z,5.44
2019-03-21T22:36:52.068Z,5.52
2019-03-21T22:39:21.765Z,5.37
2019-03-21T22:41:51.550Z,5.26
2019-03-21T22:44:21.255Z,5.34
2019-03-21T22:46:51.014Z,5.36
2019-03-21T22:49:20.735Z,5.51
2019-03-21T22:51:50.400Z,5.42
2019-03-21T22:54:20.121Z,5.18
2019-03-21T22:56:49.803Z,5.13
2019-03-21T22:59:19.519Z,5.11
2019-03-21T23:01:49.345Z,5.19
2019-03-21T23:04:19.107Z,5.12
2019-03-21T23:06:48.817Z,5.03
2019-03-21T23:09:18.603Z,5.01
2019-03-21T23:11:48.443Z,5.03
2019-03-21T23:14:18.556Z,5.26
2019-03-21T23:16:48.224Z,5.36
2019-03-21T23:19:18.002Z,5.13
2019-03-21T23:21:47.778Z,5.10
2019-03-21T23:24:17.489Z,5.02
2019-03-21T23:26:52.946Z,4.91
2019-03-21T23:29:19.147Z,4.82
2019-03-21T23:31:48.882Z,4.79
2019-03-21T23:34:18.588Z,4.75
2019-03-21T23:36:48.248Z,4.82
2019-03-21T23:39:18.381Z,4.98
2019-03-21T23:41:48.065Z,5.08
2019-03-21T23:44:17.736Z,5.05
2019-03-21T23:46:47.608Z,4.93
2019-03-21T23:49:17.269Z,4.77
2019-03-21T23:51:46.963Z,4.57
2019-03-21T23:54:16.746Z,4.70
2019-03-21T23:56:46.417Z,4.77
2019-03-21T23:59:16.115Z,4.79
